Flight Number: EUR3019 Duration: 7:00
Departure: Baltimore Washington Intl (KBWI) at 07:00 Distance: 3173 Nm
Arrival: Gatwick Airport (EGKK) at 14:00 Equipment: B777

Weather Information
BALTIMORE-WASHINGTON INTERNATIONAL , MD, United States (KBWI) 39-10N 076-41W 59M May 20, 2018 - 09:18 AM EDT / 2018.05.20 1318 UTC
Wind: from the SSW (210 degrees) at 9 MPH (8 KT):0
Visibility: 10 mile(s):0
Sky conditions: mostly cloudy Temperature: 73.9 F (23.3 C) Dew Point: 70.0 F (21.1 C) Relative Humidity: 87% Pressure (altimeter): 30.02 in. Hg (1016 hPa)
ob: KBWI 201318Z 21008KT 10SM SCT013 BKN060 BKN095 23/21 A3002 RMK AO2 T02330211 cycle: 13
Sunrise: 09:52 Sunset: 00:14 (UTC)

London / Gatwick Airport, United Kingdom (EGKK) 51-09N 000-11W 0M May 20, 2018 - 09:20 AM EDT / 2018.05.20 1320 UTC
Wind: from the NE (050 degrees) at 7 MPH (6 KT) (direction variable):0
Visibility: greater than 7 mile(s):0
Sky conditions: mostly clear Temperature: 66 F (19 C) Dew Point: 51 F (11 C) Relative Humidity: 59% Pressure (altimeter): 30.15 in. Hg (1021 hPa)
ob: EGKK 201320Z 05006KT 360V080 9999 FEW030 19/11 Q1021 cycle: 13
Sunrise: 04:06 Sunset: 19:47 (UTC)

TAF:2018/05/20 12:16 TAF EGKK 201052Z 2012/2118 07006KT 9999 SCT035 BECMG 2022/2101 7000 TEMPO 2101/2108 3000 BR BKN004 PROB30 TEMPO 2101/2107 0500 FG BKN001 BECMG 2107/2110 9999 PROB30 TEMPO 2110/2114 6000 SHRA

Previous Pireps for this route
Date Aircraft Flight time Fuel used Landing rate On time
2013-02-04A34007.09176480-953No
2013-12-03B7479.10171000Yes
2016-06-07B77706.36127079-304No
(pireps marked green are flown by you)

Route map